Atlantic Island — C4VM2 — position and weather

sailwx.info

Track history (hours):
 
Tides and Currents Weather Stations Pressure Air Temp Water Temp Dewpoint Dewpoint Depression Visibility Wind Speed Wind Dir Waves Ship Positions

Atlantic Island

Last reported at 2015-Aug-21 18:29 UTC. Time now 2015-Sep-01 03:57 UTC.
Position N 36°55' W 001°30'.
Warning: this ship's position is 10 days out of date.

Length 95 m; draft 4.8 m.

Type: Cargo ship. MMSI: 210754000.

Date/timePositionNaut miles runAvg speedWind from/ knotsBaromVisibWave heightAir tempDewpointWater temp
2015-Aug-21 18:29N 36°55' W 001°30'1111.4
2015-Aug-21 17:33N 37°02' W 001°21'1211.5
2015-Aug-21 16:33N 37°09' W 001°10'1111.5
2015-Aug-21 15:33N 37°17' W 000°59'1211.4
2015-Aug-21 14:31N 37°25' W 000°48'1111.6
2015-Aug-21 13:33N 37°32' W 000°37'1111.2
2015-Aug-21 12:33N 37°41' W 000°29'1211.6
2015-Aug-21 11:33N 37°51' W 000°22'1111.2
2015-Aug-21 10:33N 38°00' W 000°13'96 9.6
2015-Aug-21 00:31N 39°36' W 000°11'3 0.2
2015-Aug-20 08:33N 39°38' W 000°13'6 2.6
2015-Aug-20 06:18N 39°33' W 000°08'96 7.5
2015-Aug-19 17:32N 37°57' W 000°10'7 6.8
2015-Aug-19 16:33N 37°51' W 000°15'7 7.0
2015-Aug-19 15:33N 37°45' W 000°20'8 7.9
2015-Aug-19 14:33N 37°39' W 000°25'8 8.1
2015-Aug-19 13:33N 37°32' W 000°32'10 9.4
2015-Aug-19 12:28N 37°25' W 000°40'910.0
2015-Aug-19 11:33N 37°18' W 000°48'188 4.8
2015-Aug-17 20:33N 35°42' W 004°09'10 8.2
2015-Aug-17 19:19N 35°44' W 004°21'306 8.5
2015-Aug-16 07:24N 38°13' W 009°56'910.6
2015-Aug-16 06:33N 38°22' W 009°59'1110.6
2015-Aug-16 05:33N 38°32' W 010°03'1010.2
2015-Aug-16 04:33N 38°42' W 010°05'1010.1
2015-Aug-16 03:33N 38°52' W 010°05'10 9.8
2015-Aug-16 02:33N 39°02' W 010°05'10 9.4
2015-Aug-16 01:26N 39°12' W 010°06'1410.4
2015-Aug-16 00:05N 39°27' W 010°05'  
Track history (hours):
 
Tides and Currents Weather Stations Pressure Air Temp Water Temp Dewpoint Dewpoint Depression Visibility Wind Speed Wind Dir Waves Ship Positions

Atlantic Island

Last reported at 2015-Aug-21 18:29 UTC. Time now 2015-Sep-01 03:57 UTC.
Position N 36°55' W 001°30'.
Warning: this ship's position is 10 days out of date.

Length 95 m; draft 4.8 m.

Type: Cargo ship. MMSI: 210754000.

Date/timePositionNaut miles runAvg speedWind from/ knotsBaromVisibWave heightAir tempDewpointWater temp
2015-Aug-21 18:29N 36°55' W 001°30'1111.4
2015-Aug-21 17:33N 37°02' W 001°21'1211.5
2015-Aug-21 16:33N 37°09' W 001°10'1111.5
2015-Aug-21 15:33N 37°17' W 000°59'1211.4
2015-Aug-21 14:31N 37°25' W 000°48'1111.6
2015-Aug-21 13:33N 37°32' W 000°37'1111.2
2015-Aug-21 12:33N 37°41' W 000°29'1211.6
2015-Aug-21 11:33N 37°51' W 000°22'1111.2
2015-Aug-21 10:33N 38°00' W 000°13'96 9.6
2015-Aug-21 00:31N 39°36' W 000°11'3 0.2
2015-Aug-20 08:33N 39°38' W 000°13'6 2.6
2015-Aug-20 06:18N 39°33' W 000°08'96 7.5
2015-Aug-19 17:32N 37°57' W 000°10'7 6.8
2015-Aug-19 16:33N 37°51' W 000°15'7 7.0
2015-Aug-19 15:33N 37°45' W 000°20'8 7.9
2015-Aug-19 14:33N 37°39' W 000°25'8 8.1
2015-Aug-19 13:33N 37°32' W 000°32'10 9.4
2015-Aug-19 12:28N 37°25' W 000°40'910.0
2015-Aug-19 11:33N 37°18' W 000°48'188 4.8
2015-Aug-17 20:33N 35°42' W 004°09'10 8.2
2015-Aug-17 19:19N 35°44' W 004°21'306 8.5
2015-Aug-16 07:24N 38°13' W 009°56'910.6
2015-Aug-16 06:33N 38°22' W 009°59'1110.6
2015-Aug-16 05:33N 38°32' W 010°03'1010.2
2015-Aug-16 04:33N 38°42' W 010°05'1010.1
2015-Aug-16 03:33N 38°52' W 010°05'10 9.8
2015-Aug-16 02:33N 39°02' W 010°05'10 9.4
2015-Aug-16 01:26N 39°12' W 010°06'1410.4
2015-Aug-16 00:05N 39°27' W 010°05'  

Dump ship's entire track history